Meteorological information in strange format.

METAR =

SHORT TAF = TAF TAF LHBP 242330Z 2423/2424 30008KT CAVOK BECMG 2506/2509 24010KT OVC030 TEMPO 2509/2515 24015G25KT 8000 -RA BKN013 OVC025 BECMG 2515/2518 30008KT CAVOK

LONG TAF = TAF TAF LHBP 261715Z 2618/2718 09005KT CAVOK TEMPO 2618/2624 VRB02KT BKN040 PROB30 TEMPO 2618/2624 4000 -RA BR BECMG 2706/2709 12008KT SCT030 BKN180 BECMG 2713/2716 06006KT CAVOK

STATION........ LHBP
ERROR.......... Data not available

Further information from LHBP station

Request meteor information from:        station.    

 

www.tothgeza.hu

 

Magyar változat
Copyright © 2003-2024 Tóth Géza Minden jog fenntartva.